sensor_id;sensor_type;location;lat;lon;timestamp;pressure;altitude;pressure_sealevel;temperature;humidity
15487;BME280;7845;53.698;10.078;2023-04-01T00:01:54;99313.56;;;15.69;100.00
15487;BME280;7845;53.698;10.078;2023-04-01T00:04:19;99319.81;;;15.83;100.00
15487;BME280;7845;53.698;10.078;2023-04-01T00:06:45;99321.09;;;15.92;100.00
15487;BME280;7845;53.698;10.078;2023-04-01T00:09:12;99307.75;;;15.79;100.00
15487;BME280;7845;53.698;10.078;2023-04-01T00:11:38;99319.97;;;15.80;100.00
15487;BME280;7845;53.698;10.078;2023-04-01T00:14:07;99308.91;;;15.91;100.00
15487;BME280;7845;53.698;10.078;2023-04-01T00:16:33;99311.09;;;15.66;100.00
15487;BME280;7845;53.698;10.078;2023-04-01T00:18:58;99322.13;;;15.89;100.00
15487;BME280;7845;53.698;10.078;2023-04-01T00:21:25;99319.03;;;15.81;100.00
15487;BME280;7845;53.698;10.078;2023-04-01T00:23:51;99316.13;;;16.03;100.00
15487;BME280;7845;53.698;10.078;2023-04-01T00:26:17;99306.78;;;15.97;100.00
15487;BME280;7845;53.698;10.078;2023-04-01T00:28:45;99309.25;;;16.00;100.00
15487;BME280;7845;53.698;10.078;2023-04-01T00:31:12;99303.50;;;16.10;100.00
15487;BME280;7845;53.698;10.078;2023-04-01T00:33:46;99312.06;;;15.97;100.00
15487;BME280;7845;53.698;10.078;2023-04-01T00:36:18;99306.38;;;16.05;100.00
15487;BME280;7845;53.698;10.078;2023-04-01T00:38:44;99312.72;;;16.01;100.00
15487;BME280;7845;53.698;10.078;2023-04-01T00:41:12;99309.00;;;16.05;100.00
15487;BME280;7845;53.698;10.078;2023-04-01T00:43:41;99309.25;;;16.00;100.00
15487;BME280;7845;53.698;10.078;2023-04-01T00:46:07;99300.34;;;16.03;100.00
15487;BME280;7845;53.698;10.078;2023-04-01T00:48:38;99311.69;;;15.88;100.00
15487;BME280;7845;53.698;10.078;2023-04-01T00:51:14;99314.78;;;16.12;100.00
15487;BME280;7845;53.698;10.078;2023-04-01T00:53:45;99308.69;;;16.11;100.00
15487;BME280;7845;53.698;10.078;2023-04-01T00:56:15;99311.03;;;16.00;100.00
15487;BME280;7845;53.698;10.078;2023-04-01T00:58:45;99312.88;;;15.98;100.00
15487;BME280;7845;53.698;10.078;2023-04-01T01:01:12;99323.06;;;15.88;100.00
15487;BME280;7845;53.698;10.078;2023-04-01T01:03:37;99318.88;;;15.84;100.00
15487;BME280;7845;53.698;10.078;2023-04-01T01:06:15;99315.84;;;15.92;100.00
15487;BME280;7845;53.698;10.078;2023-04-01T01:09:07;99321.72;;;15.97;100.00
15487;BME280;7845;53.698;10.078;2023-04-01T01:12:00;99321.41;;;16.03;100.00
15487;BME280;7845;53.698;10.078;2023-04-01T01:14:45;99316.78;;;15.91;100.00
15487;BME280;7845;53.698;10.078;2023-04-01T01:23:36;99323.97;;;15.55;100.00
15487;BME280;7845;53.698;10.078;2023-04-01T01:32:06;99337.03;;;15.73;100.00
15487;BME280;7845;53.698;10.078;2023-04-01T01:34:55;99342.66;;;15.31;100.00
15487;BME280;7845;53.698;10.078;2023-04-01T01:37:25;99339.34;;;15.62;100.00
15487;BME280;7845;53.698;10.078;2023-04-01T01:39:58;99335.88;;;15.62;100.00
15487;BME280;7845;53.698;10.078;2023-04-01T01:42:27;99338.81;;;15.73;100.00
15487;BME280;7845;53.698;10.078;2023-04-01T01:44:56;99336.22;;;15.71;100.00
15487;BME280;7845;53.698;10.078;2023-04-01T01:47:22;99339.66;;;15.73;100.00
15487;BME280;7845;53.698;10.078;2023-04-01T01:49:49;99335.31;;;15.72;100.00
15487;BME280;7845;53.698;10.078;2023-04-01T01:52:17;99334.78;;;15.83;100.00
15487;BME280;7845;53.698;10.078;2023-04-01T01:54:56;99342.03;;;15.78;100.00
15487;BME280;7845;53.698;10.078;2023-04-01T01:57:29;99345.63;;;15.77;100.00
15487;BME280;7845;53.698;10.078;2023-04-01T02:00:02;99341.88;;;15.81;100.00
15487;BME280;7845;53.698;10.078;2023-04-01T02:02:30;99336.38;;;15.68;100.00
15487;BME280;7845;53.698;10.078;2023-04-01T02:04:57;99349.19;;;15.59;100.00
15487;BME280;7845;53.698;10.078;2023-04-01T02:07:27;99346.28;;;15.46;100.00
15487;BME280;7845;53.698;10.078;2023-04-01T02:09:55;99352.53;;;15.26;100.00
15487;BME280;7845;53.698;10.078;2023-04-01T02:12:22;99359.56;;;15.62;100.00
15487;BME280;7845;53.698;10.078;2023-04-01T02:14:55;99358.91;;;15.57;100.00
15487;BME280;7845;53.698;10.078;2023-04-01T02:17:30;99358.44;;;15.66;100.00
15487;BME280;7845;53.698;10.078;2023-04-01T02:19:59;99356.38;;;15.55;100.00
15487;BME280;7845;53.698;10.078;2023-04-01T02:22:29;99349.09;;;15.60;100.00
15487;BME280;7845;53.698;10.078;2023-04-01T02:25:00;99355.53;;;15.55;100.00
15487;BME280;7845;53.698;10.078;2023-04-01T02:27:26;99351.34;;;15.68;100.00
15487;BME280;7845;53.698;10.078;2023-04-01T02:29:52;99355.81;;;15.66;100.00
15487;BME280;7845;53.698;10.078;2023-04-01T02:32:19;99351.88;;;15.57;100.00
15487;BME280;7845;53.698;10.078;2023-04-01T02:34:47;99360.84;;;15.17;100.00
15487;BME280;7845;53.698;10.078;2023-04-01T02:37:13;99368.63;;;15.37;100.00
15487;BME280;7845;53.698;10.078;2023-04-01T02:39:42;99366.72;;;15.41;100.00
15487;BME280;7845;53.698;10.078;2023-04-01T02:42:09;99365.59;;;15.45;100.00
15487;BME280;7845;53.698;10.078;2023-04-01T02:44:36;99368.13;;;15.48;100.00
15487;BME280;7845;53.698;10.078;2023-04-01T02:47:03;99368.91;;;15.50;100.00
15487;BME280;7845;53.698;10.078;2023-04-01T02:49:28;99373.69;;;15.59;100.00
15487;BME280;7845;53.698;10.078;2023-04-01T02:51:54;99368.81;;;15.52;100.00
15487;BME280;7845;53.698;10.078;2023-04-01T02:54:20;99380.00;;;15.38;100.00
15487;BME280;7845;53.698;10.078;2023-04-01T02:56:45;99373.91;;;15.37;100.00
15487;BME280;7845;53.698;10.078;2023-04-01T02:59:11;99380.31;;;15.32;100.00
15487;BME280;7845;53.698;10.078;2023-04-01T03:01:36;99385.78;;;15.44;100.00
15487;BME280;7845;53.698;10.078;2023-04-01T03:04:02;99387.38;;;15.48;100.00
15487;BME280;7845;53.698;10.078;2023-04-01T03:06:29;99378.00;;;15.43;100.00
15487;BME280;7845;53.698;10.078;2023-04-01T03:08:54;99390.03;;;15.30;100.00
15487;BME280;7845;53.698;10.078;2023-04-01T03:11:21;99392.00;;;15.43;100.00
15487;BME280;7845;53.698;10.078;2023-04-01T03:13:46;99392.19;;;15.22;100.00
15487;BME280;7845;53.698;10.078;2023-04-01T03:16:13;99397.50;;;15.20;100.00
15487;BME280;7845;53.698;10.078;2023-04-01T03:18:41;99407.25;;;15.18;100.00
15487;BME280;7845;53.698;10.078;2023-04-01T03:21:14;99408.25;;;15.16;100.00
15487;BME280;7845;53.698;10.078;2023-04-01T03:23:40;99411.22;;;15.27;100.00
15487;BME280;7845;53.698;10.078;2023-04-01T03:26:07;99407.38;;;15.34;100.00
15487;BME280;7845;53.698;10.078;2023-04-01T03:28:34;99398.00;;;15.28;100.00
15487;BME280;7845;53.698;10.078;2023-04-01T03:31:00;99403.69;;;15.38;100.00
15487;BME280;7845;53.698;10.078;2023-04-01T03:33:26;99398.25;;;15.41;100.00
15487;BME280;7845;53.698;10.078;2023-04-01T03:35:51;99408.22;;;15.34;100.00
15487;BME280;7845;53.698;10.078;2023-04-01T03:38:17;99411.06;;;15.30;100.00
15487;BME280;7845;53.698;10.078;2023-04-01T03:40:44;99417.50;;;15.41;100.00
15487;BME280;7845;53.698;10.078;2023-04-01T03:43:10;99406.06;;;15.42;100.00
15487;BME280;7845;53.698;10.078;2023-04-01T03:45:43;99411.88;;;15.32;100.00
15487;BME280;7845;53.698;10.078;2023-04-01T03:48:09;99417.75;;;15.37;100.00
15487;BME280;7845;53.698;10.078;2023-04-01T03:50:35;99407.38;;;15.34;100.00
15487;BME280;7845;53.698;10.078;2023-04-01T03:53:01;99413.91;;;15.44;100.00
15487;BME280;7845;53.698;10.078;2023-04-01T03:55:29;99414.88;;;15.41;100.00
15487;BME280;7845;53.698;10.078;2023-04-01T03:57:54;99421.94;;;15.41;100.00
15487;BME280;7845;53.698;10.078;2023-04-01T04:00:20;99424.41;;;15.44;100.00
15487;BME280;7845;53.698;10.078;2023-04-01T04:02:48;99426.78;;;15.31;100.00
15487;BME280;7845;53.698;10.078;2023-04-01T04:05:13;99429.88;;;15.04;100.00
15487;BME280;7845;53.698;10.078;2023-04-01T04:07:40;99442.88;;;14.51;100.00
15487;BME280;7845;53.698;10.078;2023-04-01T04:10:06;99450.06;;;14.25;100.00
15487;BME280;7845;53.698;10.078;2023-04-01T04:12:32;99462.94;;;14.52;100.00
15487;BME280;7845;53.698;10.078;2023-04-01T04:14:57;99460.19;;;14.14;100.00
15487;BME280;7845;53.698;10.078;2023-04-01T04:17:23;99472.50;;;13.92;100.00
15487;BME280;7845;53.698;10.078;2023-04-01T04:19:48;99480.50;;;13.89;100.00
15487;BME280;7845;53.698;10.078;2023-04-01T04:22:14;99487.09;;;13.79;100.00
15487;BME280;7845;53.698;10.078;2023-04-01T04:24:39;99484.47;;;13.79;100.00
15487;BME280;7845;53.698;10.078;2023-04-01T04:27:04;99497.47;;;13.39;100.00
15487;BME280;7845;53.698;10.078;2023-04-01T04:29:30;99516.88;;;13.11;100.00
15487;BME280;7845;53.698;10.078;2023-04-01T04:31:55;99512.75;;;13.04;100.00
15487;BME280;7845;53.698;10.078;2023-04-01T04:34:21;99528.38;;;13.30;100.00
15487;BME280;7845;53.698;10.078;2023-04-01T04:36:47;99522.22;;;12.85;100.00
15487;BME280;7845;53.698;10.078;2023-04-01T04:39:13;99544.22;;;13.27;100.00
15487;BME280;7845;53.698;10.078;2023-04-01T04:41:38;99543.53;;;13.22;100.00
15487;BME280;7845;53.698;10.078;2023-04-01T04:44:04;99545.31;;;12.97;100.00
15487;BME280;7845;53.698;10.078;2023-04-01T04:46:30;99545.66;;;13.13;100.00
15487;BME280;7845;53.698;10.078;2023-04-01T04:48:56;99544.25;;;13.03;100.00
15487;BME280;7845;53.698;10.078;2023-04-01T04:51:22;99554.66;;;12.33;100.00
15487;BME280;7845;53.698;10.078;2023-04-01T04:53:48;99565.19;;;12.80;100.00
15487;BME280;7845;53.698;10.078;2023-04-01T04:56:20;99554.13;;;12.48;100.00
15487;BME280;7845;53.698;10.078;2023-04-01T04:58:46;99566.34;;;12.48;100.00
15487;BME280;7845;53.698;10.078;2023-04-01T05:01:14;99562.03;;;12.70;100.00
15487;BME280;7845;53.698;10.078;2023-04-01T05:03:40;99564.00;;;12.14;100.00
15487;BME280;7845;53.698;10.078;2023-04-01T05:06:07;99566.69;;;12.37;100.00
15487;BME280;7845;53.698;10.078;2023-04-01T05:08:33;99573.78;;;12.34;100.00
15487;BME280;7845;53.698;10.078;2023-04-01T05:11:07;99571.28;;;12.31;100.00
15487;BME280;7845;53.698;10.078;2023-04-01T05:13:35;99574.06;;;12.26;100.00
15487;BME280;7845;53.698;10.078;2023-04-01T05:16:00;99572.66;;;12.42;100.00
15487;BME280;7845;53.698;10.078;2023-04-01T05:18:26;99585.84;;;12.13;100.00
15487;BME280;7845;53.698;10.078;2023-04-01T05:20:53;99590.19;;;12.63;100.00
15487;BME280;7845;53.698;10.078;2023-04-01T05:23:22;99578.47;;;11.98;100.00
15487;BME280;7845;53.698;10.078;2023-04-01T05:25:48;99589.38;;;12.12;100.00
15487;BME280;7845;53.698;10.078;2023-04-01T05:28:14;99595.75;;;12.30;100.00
15487;BME280;7845;53.698;10.078;2023-04-01T05:30:40;99592.09;;;12.34;100.00
15487;BME280;7845;53.698;10.078;2023-04-01T05:33:07;99591.44;;;12.02;100.00
15487;BME280;7845;53.698;10.078;2023-04-01T05:35:33;99598.63;;;11.96;100.00
15487;BME280;7845;53.698;10.078;2023-04-01T05:37:58;99606.63;;;11.91;100.00
15487;BME280;7845;53.698;10.078;2023-04-01T05:40:24;99605.63;;;11.66;100.00
15487;BME280;7845;53.698;10.078;2023-04-01T05:42:51;99613.78;;;11.85;100.00
15487;BME280;7845;53.698;10.078;2023-04-01T05:45:17;99611.69;;;11.96;100.00
15487;BME280;7845;53.698;10.078;2023-04-01T05:47:43;99613.97;;;12.06;100.00
15487;BME280;7845;53.698;10.078;2023-04-01T05:50:15;99615.38;;;11.61;100.00
15487;BME280;7845;53.698;10.078;2023-04-01T05:52:41;99625.09;;;11.56;100.00
15487;BME280;7845;53.698;10.078;2023-04-01T05:55:07;99641.69;;;11.84;100.00
15487;BME280;7845;53.698;10.078;2023-04-01T05:57:34;99637.25;;;11.86;100.00
15487;BME280;7845;53.698;10.078;2023-04-01T06:00:02;99630.47;;;11.81;100.00
15487;BME280;7845;53.698;10.078;2023-04-01T06:02:27;99630.31;;;11.56;100.00
15487;BME280;7845;53.698;10.078;2023-04-01T06:05:02;99643.34;;;11.57;100.00
15487;BME280;7845;53.698;10.078;2023-04-01T06:07:28;99648.44;;;11.62;100.00
15487;BME280;7845;53.698;10.078;2023-04-01T06:09:54;99655.44;;;11.61;100.00
15487;BME280;7845;53.698;10.078;2023-04-01T06:12:29;99647.03;;;11.50;100.00
15487;BME280;7845;53.698;10.078;2023-04-01T06:15:13;99649.66;;;11.50;100.00
15487;BME280;7845;53.698;10.078;2023-04-01T06:26:44;99660.34;;;11.74;100.00
15487;BME280;7845;53.698;10.078;2023-04-01T06:29:26;99657.41;;;11.53;100.00
15487;BME280;7845;53.698;10.078;2023-04-01T06:40:38;99676.91;;;11.42;100.00
15487;BME280;7845;53.698;10.078;2023-04-01T06:43:17;99683.91;;;11.72;100.00
15487;BME280;7845;53.698;10.078;2023-04-01T06:46:09;99688.72;;;11.26;100.00
15487;BME280;7845;53.698;10.078;2023-04-01T06:51:27;99696.69;;;11.50;100.00
15487;BME280;7845;53.698;10.078;2023-04-01T06:54:16;99699.00;;;11.32;100.00
15487;BME280;7845;53.698;10.078;2023-04-01T06:56:45;99693.41;;;11.13;100.00
15487;BME280;7845;53.698;10.078;2023-04-01T06:59:21;99701.91;;;10.89;100.00
15487;BME280;7845;53.698;10.078;2023-04-01T07:01:50;99712.25;;;10.92;100.00
15487;BME280;7845;53.698;10.078;2023-04-01T07:04:21;99726.94;;;11.28;100.00
15487;BME280;7845;53.698;10.078;2023-04-01T07:06:53;99724.72;;;11.45;100.00
15487;BME280;7845;53.698;10.078;2023-04-01T07:09:24;99716.34;;;11.34;100.00
15487;BME280;7845;53.698;10.078;2023-04-01T07:11:53;99724.00;;;11.40;100.00
15487;BME280;7845;53.698;10.078;2023-04-01T07:17:08;99735.63;;;10.96;100.00
15487;BME280;7845;53.698;10.078;2023-04-01T07:20:01;99748.66;;;11.30;100.00
15487;BME280;7845;53.698;10.078;2023-04-01T07:28:13;99737.84;;;11.44;100.00
15487;BME280;7845;53.698;10.078;2023-04-01T07:45:19;99765.91;;;11.05;100.00
15487;BME280;7845;53.698;10.078;2023-04-01T07:50:51;99797.59;;;11.24;100.00
15487;BME280;7845;53.698;10.078;2023-04-01T07:53:53;99785.28;;;10.95;100.00
15487;BME280;7845;53.698;10.078;2023-04-01T07:56:28;99801.53;;;11.40;100.00
15487;BME280;7845;53.698;10.078;2023-04-01T08:07:13;99813.09;;;11.30;100.00
15487;BME280;7845;53.698;10.078;2023-04-01T08:09:48;99813.50;;;10.79;100.00
15487;BME280;7845;53.698;10.078;2023-04-01T08:23:00;99837.41;;;11.33;100.00
15487;BME280;7845;53.698;10.078;2023-04-01T08:25:30;99821.19;;;10.87;100.00
15487;BME280;7845;53.698;10.078;2023-04-01T08:28:08;99849.19;;;10.80;100.00
15487;BME280;7845;53.698;10.078;2023-04-01T08:30:43;99849.91;;;10.87;100.00
15487;BME280;7845;53.698;10.078;2023-04-01T08:33:27;99863.75;;;10.89;100.00
15487;BME280;7845;53.698;10.078;2023-04-01T08:36:11;99868.88;;;11.29;100.00
15487;BME280;7845;53.698;10.078;2023-04-01T08:38:53;99862.63;;;11.34;100.00
15487;BME280;7845;53.698;10.078;2023-04-01T08:44:37;99871.81;;;11.17;100.00
15487;BME280;7845;53.698;10.078;2023-04-01T08:52:39;99877.09;;;11.47;100.00
15487;BME280;7845;53.698;10.078;2023-04-01T08:55:21;99877.94;;;11.49;100.00
15487;BME280;7845;53.698;10.078;2023-04-01T09:00:33;99896.13;;;11.19;100.00
15487;BME280;7845;53.698;10.078;2023-04-01T09:12:06;99898.31;;;11.35;100.00
15487;BME280;7845;53.698;10.078;2023-04-01T09:23:43;99905.97;;;11.41;100.00
15487;BME280;7845;53.698;10.078;2023-04-01T09:34:54;99941.59;;;11.45;100.00
15487;BME280;7845;53.698;10.078;2023-04-01T09:40:31;99944.72;;;11.59;100.00
15487;BME280;7845;53.698;10.078;2023-04-01T09:46:00;99943.56;;;11.37;100.00
15487;BME280;7845;53.698;10.078;2023-04-01T09:51:26;99963.00;;;11.26;100.00
15487;BME280;7845;53.698;10.078;2023-04-01T10:00:00;99963.53;;;11.38;100.00
15487;BME280;7845;53.698;10.078;2023-04-01T10:08:25;99963.94;;;11.92;100.00
15487;BME280;7845;53.698;10.078;2023-04-01T10:20:14;99966.63;;;12.21;100.00
15487;BME280;7845;53.698;10.078;2023-04-01T10:31:56;99992.97;;;11.46;100.00
15487;BME280;7845;53.698;10.078;2023-04-01T10:45:43;100007.69;;;12.19;100.00
15487;BME280;7845;53.698;10.078;2023-04-01T10:48:28;100015.72;;;11.80;100.00
15487;BME280;7845;53.698;10.078;2023-04-01T10:51:10;100016.66;;;11.40;100.00
15487;BME280;7845;53.698;10.078;2023-04-01T10:59:45;100022.56;;;11.84;100.00
15487;BME280;7845;53.698;10.078;2023-04-01T11:05:23;100028.78;;;10.63;100.00
15487;BME280;7845;53.698;10.078;2023-04-01T11:14:09;100049.69;;;11.43;100.00
15487;BME280;7845;53.698;10.078;2023-04-01T11:25:17;100070.38;;;11.12;100.00
15487;BME280;7845;53.698;10.078;2023-04-01T11:31:11;100073.75;;;11.17;100.00
15487;BME280;7845;53.698;10.078;2023-04-01T11:42:14;100063.59;;;11.05;100.00
15487;BME280;7845;53.698;10.078;2023-04-01T11:44:58;100069.19;;;10.87;100.00
15487;BME280;7845;53.698;10.078;2023-04-01T12:01:33;100087.66;;;10.78;100.00
15487;BME280;7845;53.698;10.078;2023-04-01T12:04:25;100095.91;;;11.39;100.00
15487;BME280;7845;53.698;10.078;2023-04-01T12:09:59;100089.94;;;11.34;100.00
15487;BME280;7845;53.698;10.078;2023-04-01T12:12:48;100088.34;;;11.65;100.00
15487;BME280;7845;53.698;10.078;2023-04-01T12:18:17;100091.75;;;11.71;100.00
15487;BME280;7845;53.698;10.078;2023-04-01T12:21:17;100091.75;;;11.69;100.00
15487;BME280;7845;53.698;10.078;2023-04-01T12:27:23;100092.91;;;11.57;100.00
15487;BME280;7845;53.698;10.078;2023-04-01T12:30:21;100116.31;;;11.22;100.00
15487;BME280;7845;53.698;10.078;2023-04-01T12:33:24;100127.22;;;10.99;100.00
15487;BME280;7845;53.698;10.078;2023-04-01T12:38:40;100119.06;;;11.56;100.00
15487;BME280;7845;53.698;10.078;2023-04-01T12:41:21;100124.22;;;11.19;100.00
15487;BME280;7845;53.698;10.078;2023-04-01T12:47:16;100142.66;;;11.11;100.00
15487;BME280;7845;53.698;10.078;2023-04-01T12:50:14;100141.22;;;11.38;100.00
15487;BME280;7845;53.698;10.078;2023-04-01T12:52:58;100150.53;;;11.51;100.00
15487;BME280;7845;53.698;10.078;2023-04-01T12:55:42;100139.56;;;10.91;100.00
15487;BME280;7845;53.698;10.078;2023-04-01T13:04:18;100167.81;;;11.16;100.00
15487;BME280;7845;53.698;10.078;2023-04-01T13:10:10;100174.31;;;10.95;100.00
15487;BME280;7845;53.698;10.078;2023-04-01T13:13:21;100172.94;;;11.20;100.00
15487;BME280;7845;53.698;10.078;2023-04-01T13:16:08;100172.16;;;11.17;100.00
15487;BME280;7845;53.698;10.078;2023-04-01T13:18:58;100162.59;;;11.57;100.00
15487;BME280;7845;53.698;10.078;2023-04-01T13:27:39;100179.03;;;11.63;100.00
15487;BME280;7845;53.698;10.078;2023-04-01T13:38:59;100205.16;;;10.75;100.00
15487;BME280;7845;53.698;10.078;2023-04-01T13:41:38;100208.94;;;11.06;100.00
15487;BME280;7845;53.698;10.078;2023-04-01T13:44:16;100198.25;;;11.18;100.00
15487;BME280;7845;53.698;10.078;2023-04-01T13:49:48;100203.72;;;11.49;100.00
15487;BME280;7845;53.698;10.078;2023-04-01T13:52:37;100209.94;;;11.43;100.00
15487;BME280;7845;53.698;10.078;2023-04-01T14:17:57;100249.50;;;10.78;100.00
15487;BME280;7845;53.698;10.078;2023-04-01T14:20:47;100266.38;;;11.06;100.00
15487;BME280;7845;53.698;10.078;2023-04-01T14:29:32;100284.69;;;10.54;100.00
15487;BME280;7845;53.698;10.078;2023-04-01T14:32:34;100297.97;;;10.91;100.00
15487;BME280;7845;53.698;10.078;2023-04-01T14:35:31;100297.50;;;10.69;100.00
15487;BME280;7845;53.698;10.078;2023-04-01T14:38:20;100284.00;;;10.95;100.00
15487;BME280;7845;53.698;10.078;2023-04-01T14:40:58;100294.75;;;10.75;100.00
15487;BME280;7845;53.698;10.078;2023-04-01T14:46:53;100298.69;;;10.47;100.00
15487;BME280;7845;53.698;10.078;2023-04-01T14:49:36;100303.44;;;10.76;100.00
15487;BME280;7845;53.698;10.078;2023-04-01T14:54:38;100316.41;;;10.83;100.00
15487;BME280;7845;53.698;10.078;2023-04-01T14:59:51;100330.38;;;10.21;100.00
15487;BME280;7845;53.698;10.078;2023-04-01T15:05:15;100347.78;;;10.21;100.00
15487;BME280;7845;53.698;10.078;2023-04-01T15:15:49;100349.63;;;10.72;100.00
15487;BME280;7845;53.698;10.078;2023-04-01T15:18:39;100343.03;;;11.03;100.00
15487;BME280;7845;53.698;10.078;2023-04-01T15:24:26;100352.06;;;11.36;100.00
15487;BME280;7845;53.698;10.078;2023-04-01T15:27:10;100343.97;;;10.99;100.00
15487;BME280;7845;53.698;10.078;2023-04-01T15:29:56;100351.78;;;10.43;100.00
15487;BME280;7845;53.698;10.078;2023-04-01T15:35:34;100374.75;;;10.18;100.00
15487;BME280;7845;53.698;10.078;2023-04-01T15:38:49;100383.81;;;10.57;100.00
15487;BME280;7845;53.698;10.078;2023-04-01T15:44:37;100390.53;;;10.72;100.00
15487;BME280;7845;53.698;10.078;2023-04-01T15:47:31;100388.09;;;10.60;100.00
15487;BME280;7845;53.698;10.078;2023-04-01T15:55:27;100415.66;;;10.13;100.00
15487;BME280;7845;53.698;10.078;2023-04-01T16:00:49;100431.72;;;9.71;100.00
15487;BME280;7845;53.698;10.078;2023-04-01T16:03:38;100447.44;;;9.63;100.00
15487;BME280;7845;53.698;10.078;2023-04-01T16:12:19;100453.41;;;9.76;100.00
15487;BME280;7845;53.698;10.078;2023-04-01T16:23:51;100465.41;;;9.92;100.00
15487;BME280;7845;53.698;10.078;2023-04-01T16:26:57;100463.53;;;10.06;100.00
15487;BME280;7845;53.698;10.078;2023-04-01T16:32:13;100481.25;;;9.68;100.00
15487;BME280;7845;53.698;10.078;2023-04-01T16:34:56;100474.84;;;10.02;100.00
15487;BME280;7845;53.698;10.078;2023-04-01T16:37:52;100485.44;;;9.87;100.00
15487;BME280;7845;53.698;10.078;2023-04-01T16:43:25;100496.00;;;9.72;100.00
15487;BME280;7845;53.698;10.078;2023-04-01T16:49:02;100509.88;;;9.75;100.00
15487;BME280;7845;53.698;10.078;2023-04-01T16:54:44;100516.81;;;9.79;100.00
15487;BME280;7845;53.698;10.078;2023-04-01T17:04:47;100513.09;;;10.03;100.00
15487;BME280;7845;53.698;10.078;2023-04-01T17:21:49;100562.25;;;9.42;100.00
15487;BME280;7845;53.698;10.078;2023-04-01T17:27:15;100561.97;;;9.77;100.00
15487;BME280;7845;53.698;10.078;2023-04-01T17:32:40;100570.13;;;9.31;100.00
15487;BME280;7845;53.698;10.078;2023-04-01T17:35:27;100576.88;;;9.60;100.00
15487;BME280;7845;53.698;10.078;2023-04-01T17:38:17;100581.13;;;9.76;100.00
15487;BME280;7845;53.698;10.078;2023-04-01T17:43:49;100598.72;;;9.43;100.00
15487;BME280;7845;53.698;10.078;2023-04-01T17:46:27;100610.16;;;9.14;100.00
15487;BME280;7845;53.698;10.078;2023-04-01T17:49:03;100615.44;;;8.96;100.00
15487;BME280;7845;53.698;10.078;2023-04-01T17:51:51;100613.47;;;9.38;100.00
15487;BME280;7845;53.698;10.078;2023-04-01T17:54:41;100635.31;;;9.19;100.00
15487;BME280;7845;53.698;10.078;2023-04-01T18:11:25;100653.72;;;8.47;100.00
15487;BME280;7845;53.698;10.078;2023-04-01T18:16:45;100666.69;;;8.68;100.00
15487;BME280;7845;53.698;10.078;2023-04-01T18:19:25;100671.78;;;9.10;100.00
15487;BME280;7845;53.698;10.078;2023-04-01T18:28:27;100697.06;;;8.42;100.00
15487;BME280;7845;53.698;10.078;2023-04-01T18:31:05;100704.78;;;9.04;100.00
15487;BME280;7845;53.698;10.078;2023-04-01T18:34:01;100704.84;;;8.84;100.00
15487;BME280;7845;53.698;10.078;2023-04-01T18:36:55;100710.91;;;8.80;100.00
15487;BME280;7845;53.698;10.078;2023-04-01T18:39:35;100708.31;;;8.66;100.00
15487;BME280;7845;53.698;10.078;2023-04-01T18:48:13;100736.84;;;8.01;100.00
15487;BME280;7845;53.698;10.078;2023-04-01T18:50:50;100747.34;;;8.66;100.00
15487;BME280;7845;53.698;10.078;2023-04-01T18:56:05;100747.31;;;8.27;100.00
15487;BME280;7845;53.698;10.078;2023-04-01T18:58:49;100749.88;;;8.07;100.00
15487;BME280;7845;53.698;10.078;2023-04-01T19:01:24;100749.09;;;8.42;100.00
15487;BME280;7845;53.698;10.078;2023-04-01T19:20:51;100768.16;;;8.98;100.00
15487;BME280;7845;53.698;10.078;2023-04-01T19:23:39;100769.84;;;9.14;100.00
15487;BME280;7845;53.698;10.078;2023-04-01T19:29:25;100785.47;;;8.87;100.00
15487;BME280;7845;53.698;10.078;2023-04-01T19:34:38;100783.75;;;8.53;100.00
15487;BME280;7845;53.698;10.078;2023-04-01T19:39:58;100803.69;;;8.34;100.00
15487;BME280;7845;53.698;10.078;2023-04-01T19:42:50;100806.19;;;8.13;100.00
15487;BME280;7845;53.698;10.078;2023-04-01T19:48:11;100823.41;;;7.73;100.00
15487;BME280;7845;53.698;10.078;2023-04-01T19:51:08;100825.25;;;8.10;100.00
15487;BME280;7845;53.698;10.078;2023-04-01T19:53:49;100838.22;;;8.01;100.00
15487;BME280;7845;53.698;10.078;2023-04-01T19:56:20;100844.09;;;7.55;100.00
15487;BME280;7845;53.698;10.078;2023-04-01T19:58:58;100850.09;;;7.51;100.00
15487;BME280;7845;53.698;10.078;2023-04-01T20:01:35;100854.63;;;7.90;100.00
15487;BME280;7845;53.698;10.078;2023-04-01T20:04:08;100858.84;;;7.68;100.00
15487;BME280;7845;53.698;10.078;2023-04-01T20:07:09;100869.16;;;7.48;100.00
15487;BME280;7845;53.698;10.078;2023-04-01T20:12:55;100882.00;;;7.29;100.00
15487;BME280;7845;53.698;10.078;2023-04-01T20:15:43;100886.63;;;7.79;100.00
15487;BME280;7845;53.698;10.078;2023-04-01T20:18:18;100889.13;;;7.58;100.00
15487;BME280;7845;53.698;10.078;2023-04-01T20:20:59;100902.06;;;7.54;100.00
15487;BME280;7845;53.698;10.078;2023-04-01T20:26:20;100909.22;;;7.90;100.00
15487;BME280;7845;53.698;10.078;2023-04-01T20:29:23;100925.59;;;7.75;100.00
15487;BME280;7845;53.698;10.078;2023-04-01T20:32:04;100924.69;;;7.70;100.00
15487;BME280;7845;53.698;10.078;2023-04-01T20:37:41;100937.00;;;8.04;100.00
15487;BME280;7845;53.698;10.078;2023-04-01T20:40:37;100946.41;;;7.86;100.00
15487;BME280;7845;53.698;10.078;2023-04-01T20:43:35;100948.97;;;7.75;100.00
15487;BME280;7845;53.698;10.078;2023-04-01T20:49:28;100966.94;;;7.46;100.00
15487;BME280;7845;53.698;10.078;2023-04-01T20:52:06;100959.16;;;7.48;100.00
15487;BME280;7845;53.698;10.078;2023-04-01T21:03:06;100982.00;;;6.93;100.00
15487;BME280;7845;53.698;10.078;2023-04-01T21:09:28;101000.38;;;7.11;100.00
15487;BME280;7845;53.698;10.078;2023-04-01T21:11:42;101014.84;;;6.87;100.00